Terminal Aerodrome Forecast
Issued by NWS

Home | Current Version | Previous Version | Text Only | Print | Product List | Glossary On
Versions: 1 2 3 4 5 6 7 8 9 10 11 12 13
000
FTUS43 KAPX 030520
TAFPLN
TAF
KPLN 030520Z 0306/0406 31009KT P6SM VCSH OVC020
     FM030900 30007KT P6SM OVC017
     FM031600 31006KT P6SM OVC021
     FM032200 31004KT P6SM BKN035=

USA.gov is the U.S. government's official web portal to all federal, state and local government web resources and services.